Time;durP1;ratioP1;P1;durP2;ratioP2;P2;SDS_P1;SDS_P2;PMS_P1;PMS_P2;Temp;Humidity;BMP_temperature;BMP_pressure;BME280_temperature;BME280_humidity;BME280_pressure;Samples;Min_cycle;Max_cycle;Signal;HPM_P1;HPM_P2
2022/04/17 00:02:01;;;;;;;3.40;3.10;;;;;;;9.29;59.42;103131.31;5054062;28;20028;-79
2022/04/17 00:04:26;;;;;;;3.20;3.00;;;;;;;9.28;59.57;103135.66;5041649;28;20048;-79
2022/04/17 00:06:52;;;;;;;3.53;3.22;;;;;;;9.26;59.33;103126.06;5068653;28;20355;-80
2022/04/17 00:09:17;;;;;;;3.17;2.88;;;;;;;9.26;59.46;103121.72;5068480;28;20032;-80
2022/04/17 00:11:43;;;;;;;4.28;3.42;;;;;;;9.21;59.40;103120.84;5077336;28;20035;-80
2022/04/17 00:14:10;;;;;;;3.50;3.20;;;;;;;9.17;59.57;103124.31;5047261;28;20025;-80
2022/04/17 00:16:36;;;;;;;3.20;3.00;;;;;;;9.15;59.60;103119.09;5059528;28;20032;-80
2022/04/17 00:19:02;;;;;;;4.80;3.72;;;;;;;9.03;59.61;103109.47;5063181;28;20268;-80
2022/04/17 00:21:27;;;;;;;3.50;3.10;;;;;;;9.02;59.85;103110.34;5071856;28;20036;-79
2022/04/17 00:23:53;;;;;;;4.13;3.67;;;;;;;8.96;59.67;103115.53;5070753;28;20036;-80
2022/04/17 00:26:19;;;;;;;3.65;3.35;;;;;;;8.96;59.77;103109.47;5037559;28;20400;-79
2022/04/17 00:28:44;;;;;;;5.13;3.38;;;;;;;8.90;59.66;103110.31;5060419;28;20040;-80
2022/04/17 00:31:10;;;;;;;6.43;3.40;;;;;;;8.87;60.29;103102.47;5077674;28;20094;-80
2022/04/17 00:33:35;;;;;;;3.63;3.40;;;;;;;8.86;60.63;103102.44;5068801;28;20041;-80
2022/04/17 00:36:01;;;;;;;3.85;3.47;;;;;;;8.83;60.07;103108.56;5072675;28;20108;-80
2022/04/17 00:38:26;;;;;;;3.90;3.60;;;;;;;8.83;59.95;103098.97;5069313;28;20029;-80
2022/04/17 00:40:55;;;;;;;5.03;4.00;;;;;;;8.87;60.25;103091.16;5047036;28;20033;-80
2022/04/17 00:43:34;;;;;;;4.00;3.63;;;;;;;8.86;60.15;103095.50;5056842;28;20241;-80
2022/04/17 00:46:00;;;;;;;5.70;4.28;;;;;;;8.78;59.34;103094.59;5052487;28;20044;-80
2022/04/17 00:48:26;;;;;;;5.45;4.80;;;;;;;8.78;59.93;103087.63;5051480;28;20277;-80
2022/04/17 00:50:55;;;;;;;4.97;4.20;;;;;;;8.76;59.30;103080.66;5060159;28;20232;-79
2022/04/17 00:53:24;;;;;;;5.32;4.50;;;;;;;8.77;59.54;103088.50;5066675;28;20067;-79
2022/04/17 00:55:50;;;;;;;5.65;5.00;;;;;;;8.74;59.66;103079.78;5058719;28;20038;-80
2022/04/17 00:58:16;;;;;;;5.35;4.85;;;;;;;8.72;59.09;103076.31;5076606;28;20077;-79
2022/04/17 01:04:04;;;;;;;5.78;5.25;;;;;;;8.60;59.36;103079.72;5043385;28;20103;-79
2022/04/17 01:06:34;;;;;;;5.32;4.82;;;;;;;8.63;59.34;103087.59;5074573;28;20036;-80
2022/04/17 01:09:00;;;;;;;5.30;4.78;;;;;;;8.63;59.67;103092.81;5077380;28;20063;-79
2022/04/17 01:11:26;;;;;;;6.63;4.55;;;;;;;8.59;59.30;103081.47;5076496;28;20308;-80
2022/04/17 01:13:53;;;;;;;5.07;4.60;;;;;;;8.57;59.89;103083.22;5037807;28;20037;-80
2022/04/17 01:16:22;;;;;;;5.45;4.85;;;;;;;8.58;59.70;103077.13;5063745;28;20039;-80
2022/04/17 01:19:03;;;;;;;5.22;4.78;;;;;;;8.55;59.21;103073.63;5066943;28;20040;-79
2022/04/17 01:21:34;;;;;;;5.63;5.10;;;;;;;8.55;59.46;103074.50;5065720;28;20325;-80
2022/04/17 01:26:58;;;;;;;7.00;5.20;;;;;;;8.52;59.54;103066.66;5049661;28;20044;-79
2022/04/17 01:29:34;;;;;;;5.80;5.25;;;;;;;8.49;59.24;103074.47;5046823;28;20040;-79
2022/04/17 01:32:00;;;;;;;5.32;4.82;;;;;;;8.51;59.58;103070.13;5051310;28;20037;-79
2022/04/17 01:34:26;;;;;;;5.60;5.10;;;;;;;8.51;59.81;103070.13;5042228;28;20037;-80
2022/04/17 01:36:52;;;;;;;5.25;4.75;;;;;;;8.54;60.12;103071.88;5034780;28;20036;-79
2022/04/17 01:39:21;;;;;;;5.85;4.97;;;;;;;8.52;59.88;103077.09;5043152;28;20493;-79
2022/04/17 01:41:48;;;;;;;6.07;5.40;;;;;;;8.52;59.51;103071.88;5045386;28;20100;-80
2022/04/17 01:44:16;;;;;;;7.90;5.22;;;;;;;8.55;59.54;103071.00;5040378;28;20328;-79
2022/04/17 01:46:42;;;;;;;5.03;4.57;;;;;;;8.57;59.72;103072.78;5055309;28;20344;-80
2022/04/17 01:49:08;;;;;;;5.40;4.78;;;;;;;8.58;60.02;103068.41;5044897;28;20021;-79
2022/04/17 01:51:37;;;;;;;5.10;4.70;;;;;;;8.59;60.19;103076.25;5040000;28;20034;-79
2022/04/17 01:54:03;;;;;;;5.55;5.00;;;;;;;8.58;60.07;103063.19;5051444;28;20029;-79
2022/04/17 01:56:28;;;;;;;5.05;4.55;;;;;;;8.60;60.12;103067.56;5037986;28;20217;-79
2022/04/17 01:58:54;;;;;;;5.60;5.10;;;;;;;8.59;59.98;103065.81;5038838;28;20036;-80
2022/04/17 02:01:19;;;;;;;5.45;5.03;;;;;;;8.58;59.79;103074.50;5043151;28;20229;-80
2022/04/17 02:03:45;;;;;;;7.18;5.15;;;;;;;8.58;60.07;103064.06;5047768;28;20056;-79
2022/04/17 02:06:10;;;;;;;6.13;5.35;;;;;;;8.58;59.84;103068.41;5039647;28;20033;-79
2022/04/17 02:08:35;;;;;;;5.50;4.88;;;;;;;8.58;60.42;103071.88;5052580;28;20115;-79
2022/04/17 02:11:02;;;;;;;5.25;4.70;;;;;;;8.59;60.53;103068.41;5048281;28;20041;-79
2022/04/17 02:13:29;;;;;;;5.47;4.85;;;;;;;8.59;60.61;103065.81;5050335;28;20090;-80
2022/04/17 02:15:55;;;;;;;7.35;5.03;;;;;;;8.59;60.81;103064.94;5042468;28;20052;-80
2022/04/17 02:18:21;;;;;;;5.35;4.85;;;;;;;8.57;60.64;103062.31;5054087;28;20041;-79
2022/04/17 02:20:49;;;;;;;6.65;5.43;;;;;;;8.56;60.55;103062.31;5046678;28;20079;-80
2022/04/17 02:23:14;;;;;;;5.35;4.85;;;;;;;8.54;60.64;103062.31;5036477;28;20040;-79
2022/04/17 02:25:40;;;;;;;5.65;5.15;;;;;;;8.52;60.55;103057.97;5046195;28;20289;-80
2022/04/17 02:28:09;;;;;;;5.82;5.22;;;;;;;8.52;60.48;103047.50;5049851;28;20021;-79
2022/04/17 02:30:35;;;;;;;;;;;;;;;8.49;60.67;103047.50;5035245;28;20053;-79
2022/04/17 02:33:00;;;;;;;6.13;5.53;;;;;;;8.48;60.44;103048.34;5040205;28;19963;-80
2022/04/17 02:35:25;;;;;;;5.20;4.80;;;;;;;8.47;60.76;103046.63;5027535;28;20256;-79
2022/04/17 02:37:51;;;;;;;5.45;4.95;;;;;;;8.45;60.62;103049.22;5055802;28;20100;-80
2022/04/17 02:40:16;;;;;;;6.68;5.00;;;;;;;8.44;60.42;103055.28;5029433;28;20264;-79
2022/04/17 02:42:43;;;;;;;9.18;5.22;;;;;;;8.40;60.57;103038.75;5028539;28;20308;-80
2022/04/17 02:45:09;;;;;;;5.53;4.95;;;;;;;8.40;60.27;103043.06;5043728;28;20041;-79
2022/04/17 02:47:43;;;;;;;5.95;5.40;;;;;;;8.39;60.53;103050.03;5043255;28;20112;-80
2022/04/17 02:50:09;;;;;;;6.20;5.30;;;;;;;8.39;60.41;103036.13;5037961;28;20041;-80
2022/04/17 02:52:34;;;;;;;8.25;5.22;;;;;;;8.38;60.66;103037.84;5050683;28;20355;-80
2022/04/17 02:55:00;;;;;;;5.90;5.00;;;;;;;8.37;60.36;103035.25;5042628;28;20045;-79
2022/04/17 02:57:26;;;;;;;5.70;5.20;;;;;;;8.36;60.32;103030.88;5044116;28;20369;-80
2022/04/17 02:59:51;;;;;;;5.85;5.07;;;;;;;8.33;59.70;103026.53;5058268;28;20258;-80
2022/04/17 03:07:45;;;;;;;5.40;4.90;;;;;;;8.29;59.38;103032.59;5060860;28;20043;-80
2022/04/17 03:10:11;;;;;;;5.97;5.20;;;;;;;8.28;60.04;103033.47;5046491;28;20040;-80
2022/04/17 03:12:37;;;;;;;7.10;5.65;;;;;;;8.26;60.16;103025.63;5043260;28;20052;-80
2022/04/17 03:15:04;;;;;;;5.45;4.95;;;;;;;8.26;60.37;103028.22;5043779;28;20029;-80
2022/04/17 03:17:29;;;;;;;6.07;5.25;;;;;;;8.23;59.67;103028.22;5032797;28;20104;-80
2022/04/17 03:19:55;;;;;;;6.95;5.22;;;;;;;8.18;58.49;103024.69;5040438;28;20092;-80
2022/04/17 03:22:22;;;;;;;6.38;5.78;;;;;;;8.16;58.82;103023.81;5032420;28;20060;-80
2022/04/17 03:24:47;;;;;;;8.88;6.00;;;;;;;8.12;58.88;103023.81;5056361;28;20037;-80
2022/04/17 03:27:13;;;;;;;7.05;5.85;;;;;;;8.12;59.94;103022.06;5039019;28;20035;-80
2022/04/17 03:29:38;;;;;;;6.97;5.35;;;;;;;8.10;59.62;103021.22;5077782;28;20029;-80
2022/04/17 03:32:04;;;;;;;6.72;6.13;;;;;;;8.05;58.76;103018.56;5019425;28;20034;-80
2022/04/17 03:34:29;;;;;;;5.97;5.43;;;;;;;8.02;58.92;103018.56;5057728;28;20120;-80
2022/04/17 03:36:57;;;;;;;6.97;5.57;;;;;;;8.00;58.99;103020.28;5049184;28;20018;-80
2022/04/17 03:39:24;;;;;;;7.38;6.53;;;;;;;7.83;57.79;103014.97;5060933;28;20040;-80
2022/04/17 03:41:50;;;;;;;6.97;6.28;;;;;;;7.81;58.68;103015.84;5061095;28;20051;-80
2022/04/17 03:44:15;;;;;;;6.75;6.18;;;;;;;7.78;59.00;103016.69;5060683;28;20037;-80
2022/04/17 03:46:41;;;;;;;7.53;5.95;;;;;;;7.77;59.49;103017.56;5050438;28;20040;-80
2022/04/17 03:49:07;;;;;;;8.23;6.57;;;;;;;7.75;59.54;103011.47;5053635;28;20021;-80
2022/04/17 03:51:32;;;;;;;7.22;6.03;;;;;;;7.77;59.78;103014.09;5052718;28;20055;-81
2022/04/17 03:53:58;;;;;;;8.43;6.25;;;;;;;7.75;60.06;103016.69;5035350;28;20040;-80
2022/04/17 03:56:23;;;;;;;6.35;5.85;;;;;;;7.74;60.23;103009.72;5063170;28;20032;-80
2022/04/17 03:58:49;;;;;;;8.25;6.32;;;;;;;7.73;59.99;103020.13;5055487;28;20088;-80
2022/04/17 04:01:14;;;;;;;6.15;5.55;;;;;;;7.71;59.96;103009.69;5053152;28;20321;-80
2022/04/17 04:03:40;;;;;;;7.10;6.40;;;;;;;7.69;59.99;103001.88;5039863;28;20041;-80
2022/04/17 04:06:05;;;;;;;6.85;5.90;;;;;;;7.69;60.34;103008.81;5019010;28;20052;-80
2022/04/17 04:08:30;;;;;;;6.50;5.93;;;;;;;7.68;60.35;102999.25;5051853;28;20034;-80
2022/04/17 04:10:56;;;;;;;6.82;6.10;;;;;;;7.68;60.51;102999.25;5051330;28;20038;-80
2022/04/17 04:13:21;;;;;;;6.50;5.82;;;;;;;7.65;60.52;102999.22;5052968;28;20025;-80
2022/04/17 04:15:47;;;;;;;7.45;6.63;;;;;;;7.63;60.44;102999.22;5040511;28;20045;-80
2022/04/17 04:18:15;;;;;;;7.18;6.47;;;;;;;7.63;60.73;102998.34;5050884;28;20020;-80
2022/04/17 04:20:40;;;;;;;6.55;5.85;;;;;;;7.61;60.50;102998.34;5051991;28;20336;-80
2022/04/17 04:23:06;;;;;;;6.70;6.10;;;;;;;7.61;60.57;103000.06;5050688;28;20040;-81
2022/04/17 04:25:31;;;;;;;8.75;6.53;;;;;;;7.60;60.90;102993.97;5059527;28;20382;-80
2022/04/17 04:30:41;;;;;;;6.18;5.63;;;;;;;7.59;61.04;102994.84;5050235;28;20052;-80
2022/04/17 04:33:06;;;;;;;6.78;6.05;;;;;;;7.59;60.85;102980.94;5044120;28;20045;-80
2022/04/17 04:35:33;;;;;;;6.72;6.13;;;;;;;7.58;60.69;102985.25;5050253;28;20241;-80
2022/04/17 04:38:00;;;;;;;6.70;5.93;;;;;;;7.56;60.90;102980.91;5045703;28;20029;-80
2022/04/17 04:40:26;;;;;;;8.45;6.78;;;;;;;7.54;61.04;102975.69;5048684;28;20052;-80
2022/04/17 04:42:59;;;;;;;6.53;5.45;;;;;;;7.54;61.19;102974.81;5044571;28;20321;-80
2022/04/17 04:48:09;;;;;;;7.05;5.70;;;;;;;7.50;61.20;102976.53;5063730;28;20355;-80
2022/04/17 04:50:35;;;;;;;6.50;5.93;;;;;;;7.48;61.11;102976.53;5055678;28;20040;-80
2022/04/17 04:53:02;;;;;;;6.68;6.05;;;;;;;7.47;61.25;102974.75;5052394;28;20118;-80
2022/04/17 04:55:27;;;;;;;7.90;5.65;;;;;;;7.46;61.29;102978.25;5050915;28;20033;-80
2022/04/17 04:57:53;;;;;;;6.82;6.13;;;;;;;7.45;61.31;102973.88;5057516;28;20296;-80
2022/04/17 05:00:18;;;;;;;9.07;6.35;;;;;;;7.45;61.14;102976.50;5051530;28;20033;-80
2022/04/17 05:02:44;;;;;;;6.50;5.85;;;;;;;7.42;61.38;102973.88;5057349;28;20340;-80
2022/04/17 05:05:10;;;;;;;6.90;6.20;;;;;;;7.40;61.26;102974.72;5062923;28;20088;-80
2022/04/17 05:07:35;;;;;;;9.07;6.43;;;;;;;7.39;61.24;102973.00;5050634;28;20342;-80
2022/04/17 05:10:01;;;;;;;6.63;6.00;;;;;;;7.39;61.16;102973.00;5041299;28;20033;-80
2022/04/17 05:12:29;;;;;;;6.82;5.65;;;;;;;7.38;61.32;102984.28;5035716;28;20290;-80
2022/04/17 05:14:55;;;;;;;6.70;6.05;;;;;;;7.36;60.99;102984.25;5056103;28;20028;-80
2022/04/17 05:17:20;;;;;;;7.13;5.93;;;;;;;7.36;61.45;102986.00;5058957;28;20029;-80
2022/04/17 05:19:46;;;;;;;6.78;6.05;;;;;;;7.36;61.52;102980.78;5031371;28;20365;-80
2022/04/17 05:22:20;;;;;;;7.22;5.93;;;;;;;7.36;61.64;102986.84;5058863;28;20020;-80
2022/04/17 05:24:46;;;;;;;9.50;5.82;;;;;;;7.35;61.64;102979.91;5055078;28;20037;-80
2022/04/17 05:27:12;;;;;;;7.22;6.50;;;;;;;7.36;61.75;102988.59;5036836;28;20085;-81
2022/04/17 05:29:39;;;;;;;6.63;5.93;;;;;;;7.36;61.85;102981.66;5049560;28;20041;-80
2022/04/17 05:32:05;;;;;;;6.70;6.00;;;;;;;7.36;62.10;102986.00;5052909;28;20069;-80
2022/04/17 05:34:30;;;;;;;8.00;6.10;;;;;;;7.36;62.22;102986.84;5074309;28;20182;-80
2022/04/17 05:36:56;;;;;;;6.03;5.53;;;;;;;7.38;62.10;102986.88;5071197;28;20055;-80
2022/04/17 05:39:21;;;;;;;7.65;5.30;;;;;;;7.38;62.27;102989.47;5070289;28;20103;-80
2022/04/17 05:41:47;;;;;;;6.75;5.65;;;;;;;7.37;62.40;102982.50;5082309;28;20035;-80
2022/04/17 05:44:14;;;;;;;6.07;5.43;;;;;;;7.38;62.44;102987.75;5059617;28;20032;-80
2022/04/17 05:46:41;;;;;;;6.30;5.57;;;;;;;7.38;62.43;102985.13;5056460;28;20051;-80
2022/04/17 05:49:07;;;;;;;5.95;5.38;;;;;;;7.40;62.55;102988.63;5055537;28;20028;-80
2022/04/17 05:51:36;;;;;;;7.00;6.00;;;;;;;7.41;62.78;102984.31;5035765;28;20071;-80
2022/04/17 05:54:06;;;;;;;5.88;5.25;;;;;;;7.41;62.78;102987.78;5076688;28;20032;-80
2022/04/17 05:56:32;;;;;;;6.25;5.65;;;;;;;7.41;62.70;102979.94;5051021;28;20025;-80
2022/04/17 05:58:57;;;;;;;5.80;5.25;;;;;;;7.43;62.71;102983.44;5057313;28;20405;-80
2022/04/17 06:01:24;;;;;;;6.10;5.50;;;;;;;7.44;62.95;102985.19;5070388;28;20025;-80
2022/04/17 06:03:50;;;;;;;8.10;5.85;;;;;;;7.43;62.94;102986.03;5051663;28;20059;-80
2022/04/17 06:06:17;;;;;;;5.97;5.40;;;;;;;7.44;62.54;102979.09;5045028;28;20035;-80
2022/04/17 06:08:42;;;;;;;6.05;5.47;;;;;;;7.42;62.78;102976.50;5057158;28;20103;-80
2022/04/17 06:11:08;;;;;;;6.55;5.78;;;;;;;7.43;62.95;102983.44;5051502;28;20063;-80
2022/04/17 06:13:33;;;;;;;6.85;6.25;;;;;;;7.40;62.27;102978.19;5049962;28;20040;-80
2022/04/17 06:15:58;;;;;;;8.07;5.93;;;;;;;7.41;62.53;102979.94;5059308;28;20056;-80
2022/04/17 06:18:24;;;;;;;6.55;5.22;;;;;;;7.44;62.67;102984.28;5030637;28;20032;-80
2022/04/17 06:20:49;;;;;;;6.68;5.97;;;;;;;7.43;62.81;102991.25;5042509;28;20028;-80
2022/04/17 06:23:15;;;;;;;7.05;5.20;;;;;;;7.46;63.08;102987.81;5062303;28;20028;-80
2022/04/17 06:25:40;;;;;;;6.55;5.70;;;;;;;7.45;62.96;102986.06;5069505;28;20040;-80
2022/04/17 06:28:06;;;;;;;6.80;5.93;;;;;;;7.45;62.83;102981.69;5056584;28;20112;-80
2022/04/17 06:30:31;;;;;;;7.82;6.07;;;;;;;7.48;63.21;102986.94;5041139;28;20048;-80
2022/04/17 06:32:57;;;;;;;7.40;5.78;;;;;;;7.47;63.32;102982.59;5050811;28;20352;-80
2022/04/17 06:35:22;;;;;;;6.35;5.30;;;;;;;7.50;63.68;102982.63;5038262;28;20063;-80
2022/04/17 06:37:56;;;;;;;5.60;5.10;;;;;;;7.54;63.95;102985.25;5045350;28;20044;-80
2022/04/17 06:40:29;;;;;;;7.70;6.13;;;;;;;7.53;63.60;102980.88;5055015;28;20062;-83
2022/04/17 06:42:57;;;;;;;5.72;5.13;;;;;;;7.53;63.93;102981.78;5053239;28;20389;-80
2022/04/17 06:45:25;;;;;;;6.97;5.63;;;;;;;7.55;63.85;102971.34;5056264;28;20035;-80
2022/04/17 06:47:50;;;;;;;6.28;5.72;;;;;;;7.56;63.64;102978.31;5079510;28;20339;-80
2022/04/17 06:50:18;;;;;;;5.78;5.28;;;;;;;7.58;64.14;102977.44;5057970;28;20025;-81
2022/04/17 06:52:43;;;;;;;5.03;4.63;;;;;;;7.60;64.57;102980.06;5047985;28;20057;-81
2022/04/17 06:55:11;;;;;;;6.38;5.57;;;;;;;7.63;64.67;102977.47;5060252;28;20043;-80
2022/04/17 06:57:39;;;;;;;6.43;5.82;;;;;;;7.64;64.96;102977.50;5074988;28;20065;-81
2022/04/17 07:00:10;;;;;;;6.38;5.72;;;;;;;7.66;65.21;102975.75;5077425;28;20039;-81
2022/04/17 07:02:36;;;;;;;5.18;4.78;;;;;;;7.68;65.31;102971.44;5042949;28;20107;-80
2022/04/17 07:05:02;;;;;;;7.78;5.05;;;;;;;7.69;64.34;102964.47;5058952;28;20032;-80
2022/04/17 07:07:27;;;;;;;5.82;5.32;;;;;;;7.70;64.67;102966.22;5055628;28;20259;-81
2022/04/17 07:09:54;;;;;;;6.07;5.57;;;;;;;7.72;65.09;102967.09;5055630;28;20036;-80
2022/04/17 07:12:19;;;;;;;6.00;5.50;;;;;;;7.74;65.27;102967.97;5050328;28;20028;-80
2022/04/17 07:14:47;;;;;;;6.68;6.07;;;;;;;7.75;65.52;102967.13;5057797;28;20063;-80
2022/04/17 07:17:13;;;;;;;6.57;5.97;;;;;;;7.78;65.64;102968.84;5054286;28;20109;-80
2022/04/17 07:19:38;;;;;;;5.70;5.10;;;;;;;7.80;65.56;102961.91;5069165;28;20037;-80
2022/04/17 07:22:04;;;;;;;6.93;6.22;;;;;;;7.82;66.23;102957.56;5052754;28;20024;-80
2022/04/17 07:24:29;;;;;;;6.22;5.63;;;;;;;7.83;64.66;102961.94;5071995;28;20060;-81
2022/04/17 07:26:56;;;;;;;5.88;5.35;;;;;;;7.85;63.95;102957.59;5084493;28;20126;-80
2022/04/17 07:29:22;;;;;;;5.63;5.13;;;;;;;7.85;64.32;102966.28;5060322;28;20070;-80
2022/04/17 07:31:51;;;;;;;6.20;5.63;;;;;;;7.88;64.17;102958.47;5082274;28;20060;-80
2022/04/17 07:34:22;;;;;;;;;;;;;;;7.91;64.80;102965.44;5066694;28;20066;-81
2022/04/17 07:36:52;;;;;;;6.30;5.70;;;;;;;7.94;64.33;102959.38;5084666;28;19915;-80
2022/04/17 07:39:18;;;;;;;6.35;5.70;;;;;;;7.96;63.96;102955.03;5084173;28;20050;-81
2022/04/17 07:41:46;;;;;;;6.00;4.70;;;;;;;7.98;63.14;102953.28;5040292;28;20013;-81
2022/04/17 07:44:13;;;;;;;5.78;5.13;;;;;;;8.02;63.62;102955.94;5063098;28;20092;-80
2022/04/17 07:46:40;;;;;;;5.32;4.82;;;;;;;8.05;62.98;102955.94;5083385;28;20058;-81
2022/04/17 07:49:05;;;;;;;6.75;4.38;;;;;;;8.08;62.93;102952.47;5084869;28;20027;-81
2022/04/17 07:51:31;;;;;;;9.43;4.72;;;;;;;8.12;62.82;102956.84;5086550;28;20328;-81
2022/04/17 07:53:56;;;;;;;5.05;4.65;;;;;;;8.15;63.01;102956.84;5074504;28;20020;-81
2022/04/17 07:56:22;;;;;;;5.15;4.75;;;;;;;8.19;62.63;102957.75;5088004;28;20091;-81
2022/04/17 07:58:47;;;;;;;4.88;4.47;;;;;;;8.21;62.82;102946.41;5088853;28;20029;-80
2022/04/17 08:01:15;;;;;;;4.68;4.00;;;;;;;8.25;62.79;102947.31;5055580;28;20047;-80
2022/04/17 08:06:07;;;;;;;5.18;4.03;;;;;;;8.31;62.04;102949.91;5086879;28;20331;-80
2022/04/17 08:08:34;;;;;;;7.80;5.45;;;;;;;8.34;62.02;102939.50;5070452;28;20028;-80
2022/04/17 08:11:00;;;;;;;5.40;4.30;;;;;;;8.37;61.54;102949.09;5053694;28;20105;-80
2022/04/17 08:13:25;;;;;;;4.88;4.30;;;;;;;8.41;61.79;102945.59;5069981;28;20313;-80
2022/04/17 08:15:51;;;;;;;5.10;4.60;;;;;;;8.44;60.04;102946.53;5055774;28;20037;-81
2022/04/17 08:18:16;;;;;;;6.25;4.30;;;;;;;8.49;60.28;102945.66;5060469;28;20017;-81
2022/04/17 08:20:43;;;;;;;5.10;4.60;;;;;;;8.52;59.69;102941.31;5069466;28;20054;-80
2022/04/17 08:23:08;;;;;;;4.88;4.47;;;;;;;8.55;58.90;102938.69;5048535;28;20086;-80
2022/04/17 08:25:34;;;;;;;6.28;4.60;;;;;;;8.61;59.35;102937.84;5047673;28;20059;-80
2022/04/17 08:28:00;;;;;;;4.13;3.83;;;;;;;8.67;59.13;102937.81;5040306;28;20213;-81
2022/04/17 08:30:27;;;;;;;4.90;4.15;;;;;;;8.70;59.38;102927.41;5062563;28;20100;-81
2022/04/17 08:32:52;;;;;;;3.90;3.53;;;;;;;8.74;59.29;102928.25;5084743;28;20055;-80
2022/04/17 08:35:18;;;;;;;4.85;3.90;;;;;;;8.77;58.62;102929.13;5084910;28;20095;-81
2022/04/17 08:37:45;;;;;;;6.65;4.68;;;;;;;8.81;58.93;102927.41;5059250;28;20151;-81
2022/04/17 08:40:11;;;;;;;5.00;4.50;;;;;;;8.84;58.74;102930.88;5062052;28;20051;-80
2022/04/17 08:42:38;;;;;;;4.07;3.75;;;;;;;8.92;58.37;102928.25;5058549;28;20072;-80
2022/04/17 08:45:03;;;;;;;5.32;4.85;;;;;;;8.95;58.69;102923.03;5078636;28;20084;-80
2022/04/17 08:47:29;;;;;;;5.05;4.38;;;;;;;9.00;58.71;102916.06;5067795;28;20032;-80
2022/04/17 08:49:55;;;;;;;4.57;4.20;;;;;;;9.05;58.13;102923.03;5060794;28;20028;-81
2022/04/17 08:52:22;;;;;;;5.05;4.65;;;;;;;9.10;58.22;102922.16;5079786;28;20194;-80
2022/04/17 08:54:49;;;;;;;4.97;4.25;;;;;;;9.15;57.79;102915.19;5068341;28;20037;-81
2022/04/17 08:57:16;;;;;;;4.82;4.40;;;;;;;9.28;57.68;102917.75;5046975;28;20411;-81
2022/04/17 08:59:42;;;;;;;4.22;3.83;;;;;;;9.38;56.83;102912.50;5062577;28;20031;-80
2022/04/17 09:02:12;;;;;;;4.70;4.20;;;;;;;9.44;56.72;102908.13;5072701;28;20028;-81
2022/04/17 09:04:38;;;;;;;5.82;3.97;;;;;;;9.44;56.69;102910.75;5067768;28;20096;-80
2022/04/17 09:07:09;;;;;;;6.60;4.32;;;;;;;9.47;56.57;102911.59;5067311;28;20020;-80
2022/04/17 09:09:47;;;;;;;4.50;4.10;;;;;;;9.52;55.79;102909.00;5072725;28;20229;-81
2022/04/17 09:12:23;;;;;;;4.65;4.25;;;;;;;9.64;56.24;102902.81;5076847;28;20032;-81
2022/04/17 09:14:49;;;;;;;3.40;3.20;;;;;;;9.69;55.90;102899.31;5045596;28;20028;-80
2022/04/17 09:17:15;;;;;;;3.90;3.60;;;;;;;9.76;54.62;102894.94;5079193;28;20036;-81
2022/04/17 09:19:41;;;;;;;4.65;4.05;;;;;;;9.83;55.67;102898.41;5075941;28;20033;-81
2022/04/17 09:22:08;;;;;;;4.28;3.75;;;;;;;9.90;54.44;102900.13;5049783;28;20028;-81
2022/04/17 09:24:38;;;;;;;5.95;3.40;;;;;;;9.97;54.57;102899.22;5057766;28;20036;-80
2022/04/17 09:27:05;;;;;;;4.13;3.72;;;;;;;10.05;54.63;102894.78;5064914;28;20074;-80
2022/04/17 09:29:38;;;;;;;4.35;3.95;;;;;;;10.14;54.23;102897.34;5065333;28;20266;-81
2022/04/17 09:32:07;;;;;;;4.53;4.05;;;;;;;10.20;54.25;102888.59;5060232;28;20084;-81
2022/04/17 09:34:47;;;;;;;6.38;3.88;;;;;;;10.29;54.48;102882.41;5072841;28;20040;-80
2022/04/17 09:37:23;;;;;;;4.50;4.10;;;;;;;10.38;53.80;102883.25;5070594;28;20063;-81
2022/04/17 09:39:52;;;;;;;4.57;4.18;;;;;;;10.50;52.20;102873.59;5081160;28;20090;-81
2022/04/17 09:42:25;;;;;;;4.30;4.00;;;;;;;10.56;53.63;102877.00;5053953;28;20096;-81
2022/04/17 09:44:57;;;;;;;3.50;3.30;;;;;;;10.58;53.91;102869.13;5070347;28;20020;-80
2022/04/17 09:47:23;;;;;;;4.93;3.80;;;;;;;10.61;54.10;102869.13;5064317;28;20048;-81
2022/04/17 09:49:57;;;;;;;4.50;4.10;;;;;;;10.68;53.99;102865.56;5080891;28;20067;-81
2022/04/17 09:52:31;;;;;;;4.65;4.25;;;;;;;10.74;54.43;102854.16;5075257;28;20033;-81
2022/04/17 09:55:00;;;;;;;4.40;3.97;;;;;;;10.83;54.40;102856.69;5060477;28;20051;-80
2022/04/17 09:57:30;;;;;;;4.25;3.90;;;;;;;10.89;54.44;102855.75;5068417;28;20031;-81
2022/04/17 10:00:06;;;;;;;4.50;4.05;;;;;;;10.94;53.21;102852.19;5071786;28;20363;-81
2022/04/17 10:02:33;;;;;;;4.65;4.25;;;;;;;10.99;53.89;102841.69;5073807;28;20067;-81
2022/04/17 10:05:00;;;;;;;5.57;4.35;;;;;;;11.05;54.11;102840.75;5049167;28;20073;-81
2022/04/17 10:07:26;;;;;;;4.35;4.00;;;;;;;11.18;53.86;102837.09;5045771;28;20689;-81
2022/04/17 10:09:52;;;;;;;5.13;4.55;;;;;;;11.29;54.06;102839.59;5054174;28;20028;-81
2022/04/17 10:12:20;;;;;;;4.35;3.95;;;;;;;11.41;53.33;102833.34;5081546;28;20039;-81
2022/04/17 10:14:48;;;;;;;4.20;3.88;;;;;;;11.52;52.27;102834.94;5083349;28;20040;-81
2022/04/17 10:17:18;;;;;;;4.17;3.77;;;;;;;11.63;52.07;102829.53;5049689;28;20054;-81
2022/04/17 10:19:45;;;;;;;4.97;4.25;;;;;;;11.65;51.70;102830.38;5057822;28;20279;-81
2022/04/17 10:22:12;;;;;;;4.65;4.25;;;;;;;11.69;52.16;102826.81;5052398;28;20209;-81
2022/04/17 10:24:43;;;;;;;4.30;4.00;;;;;;;11.70;52.59;102820.69;5069030;28;20036;-81
2022/04/17 10:27:15;;;;;;;4.47;3.45;;;;;;;11.76;51.80;102825.00;5065752;28;20051;-81
2022/04/17 10:29:45;;;;;;;5.07;4.05;;;;;;;11.86;50.19;102817.84;5071383;28;20032;-81
2022/04/17 10:32:36;;;;;;;4.60;4.20;;;;;;;11.90;51.30;102807.31;5063128;28;20029;-81
2022/04/17 10:35:29;;;;;;;3.83;3.53;;;;;;;11.98;50.12;102804.56;5080141;28;20103;-81
2022/04/17 10:38:13;;;;;;;8.45;4.30;;;;;;;12.05;51.33;102800.09;5077346;28;20021;-80
2022/04/17 10:40:38;;;;;;;5.78;4.32;;;;;;;12.14;50.53;102796.47;5069091;28;20032;-81
2022/04/17 10:43:05;;;;;;;4.97;4.57;;;;;;;12.24;49.17;102795.41;5055987;28;20100;-81
2022/04/17 10:45:31;;;;;;;4.57;4.18;;;;;;;12.31;50.08;102796.19;5071467;28;20049;-81
2022/04/17 10:48:05;;;;;;;4.32;3.58;;;;;;;12.36;49.51;102786.47;5083105;28;20040;-81
2022/04/17 10:50:51;;;;;;;4.20;3.90;;;;;;;12.49;48.90;102782.72;5068643;28;20060;-81
2022/04/17 10:53:28;;;;;;;5.95;3.92;;;;;;;12.59;47.36;102776.41;5074309;28;20061;-81
2022/04/17 10:56:15;;;;;;;3.58;3.30;;;;;;;12.66;47.46;102774.53;5086032;28;20089;-81
2022/04/17 10:58:51;;;;;;;4.13;3.20;;;;;;;12.73;47.78;102765.63;5087723;28;20040;-81
2022/04/17 11:01:42;;;;;;;3.50;3.20;;;;;;;12.75;47.97;102761.25;5061919;28;20238;-81
2022/04/17 11:04:23;;;;;;;3.30;3.00;;;;;;;12.77;47.79;102761.19;5069849;28;20029;-81
2022/04/17 11:07:06;;;;;;;4.00;3.70;;;;;;;12.84;48.02;102761.06;5081616;28;20100;-81
2022/04/17 11:09:41;;;;;;;3.08;2.88;;;;;;;12.86;48.14;102758.38;5059469;28;20028;-81
2022/04/17 11:12:10;;;;;;;3.55;3.25;;;;;;;12.91;46.21;102751.25;5067204;28;20320;-81
2022/04/17 11:14:35;;;;;;;3.58;3.28;;;;;;;12.95;46.68;102745.06;5087508;28;20038;-81
2022/04/17 11:17:09;;;;;;;3.35;3.03;;;;;;;13.05;46.42;102740.47;5044487;28;20056;-81
2022/04/17 11:19:39;;;;;;;3.88;3.58;;;;;;;13.11;46.31;102745.59;5063393;28;20231;-81
2022/04/17 11:22:08;;;;;;;3.58;3.25;;;;;;;13.18;46.97;102741.94;5061347;28;20033;-81
2022/04/17 11:24:55;;;;;;;3.72;3.42;;;;;;;13.32;46.73;102728.53;5056663;28;20336;-81
2022/04/17 11:27:42;;;;;;;3.53;3.17;;;;;;;13.37;47.39;102725.78;5059939;28;20337;-81
2022/04/17 11:30:28;;;;;;;4.32;3.17;;;;;;;13.42;47.08;102719.53;5065975;28;20020;-81
2022/04/17 11:32:55;;;;;;;3.88;3.47;;;;;;;13.47;47.32;102722.03;5060554;28;20036;-81
2022/04/17 11:35:24;;;;;;;3.80;3.50;;;;;;;13.52;47.21;102719.31;5084097;28;20028;-81
2022/04/17 11:37:56;;;;;;;5.38;3.83;;;;;;;13.58;47.24;102713.91;5072624;28;20112;-81
2022/04/17 11:40:24;;;;;;;3.80;3.50;;;;;;;13.62;47.16;102708.56;5070697;28;20031;-81
2022/04/17 11:42:54;;;;;;;4.30;3.90;;;;;;;13.67;45.66;102704.94;5061146;28;20169;-81
2022/04/17 11:45:25;;;;;;;5.70;3.55;;;;;;;13.73;45.94;102702.13;5080834;28;20055;-81
2022/04/17 11:47:53;;;;;;;4.38;3.67;;;;;;;13.74;45.85;102701.25;5086545;28;20040;-81
2022/04/17 11:50:26;;;;;;;4.28;3.30;;;;;;;13.75;46.38;102695.06;5057014;28;20031;-81
2022/04/17 11:52:53;;;;;;;4.95;3.35;;;;;;;13.78;46.04;102689.72;5071204;28;20059;-81
2022/04/17 11:55:35;;;;;;;4.15;3.08;;;;;;;13.89;44.65;102687.69;5061286;28;20107;-81